createdAt,value
2023-03-15T00:01:18.960Z,65.33
2023-03-15T00:03:49.382Z,65.64
2023-03-15T00:06:24.170Z,65.87
2023-03-15T00:08:54.888Z,66.05
2023-03-15T00:11:31.163Z,66.55
2023-03-15T00:14:02.913Z,66.67
2023-03-15T00:16:33.176Z,66.95
2023-03-15T00:19:03.843Z,67.29
2023-03-15T00:21:33.159Z,67.84
2023-03-15T00:24:02.134Z,68.21
2023-03-15T00:26:31.882Z,68.38
2023-03-15T00:29:01.733Z,68.87
2023-03-15T00:31:36.332Z,69.27
2023-03-15T00:34:04.918Z,69.80
2023-03-15T00:36:33.416Z,69.91
2023-03-15T00:39:03.808Z,70.48
2023-03-15T00:41:32.694Z,70.50
2023-03-15T00:44:06.725Z,70.73
2023-03-15T00:46:38.343Z,71.10
2023-03-15T00:49:06.965Z,71.00
2023-03-15T00:51:39.112Z,71.42
2023-03-15T00:54:11.504Z,71.82
2023-03-15T00:56:41.515Z,71.62
2023-03-15T00:59:13.713Z,71.98
2023-03-15T01:01:45.323Z,72.21
2023-03-15T01:04:14.740Z,72.19
2023-03-15T01:06:44.665Z,72.54
2023-03-15T01:09:15.199Z,72.68
2023-03-15T01:11:45.357Z,72.90
2023-03-15T01:14:16.674Z,73.37
2023-03-15T01:16:51.707Z,73.34
2023-03-15T01:19:20.948Z,73.24
2023-03-15T01:21:50.461Z,73.59
2023-03-15T01:24:18.984Z,73.69
2023-03-15T01:26:47.936Z,73.95
2023-03-15T01:29:24.864Z,73.89
2023-03-15T01:31:53.983Z,74.18
2023-03-15T01:34:23.109Z,74.45
2023-03-15T01:37:01.184Z,74.38
2023-03-15T01:39:36.772Z,74.68
2023-03-15T01:42:12.317Z,75.07
2023-03-15T01:45:00.333Z,74.97
2023-03-15T01:47:33.523Z,74.83
2023-03-15T01:50:10.296Z,74.97
2023-03-15T01:52:39.799Z,75.48
2023-03-15T01:55:11.640Z,75.54
2023-03-15T01:57:49.740Z,75.56
2023-03-15T02:00:23.286Z,75.55
2023-03-15T02:03:26.887Z,75.65
2023-03-15T02:06:07.605Z,76.14
2023-03-15T02:08:50.903Z,76.42
2023-03-15T02:11:21.090Z,76.57
2023-03-15T02:13:55.525Z,76.85
2023-03-15T02:16:30.752Z,76.97
2023-03-15T02:19:01.651Z,76.97
2023-03-15T02:21:47.086Z,77.19
2023-03-15T02:24:18.976Z,77.72
2023-03-15T02:26:58.893Z,77.73
2023-03-15T02:29:28.629Z,77.71
2023-03-15T02:32:11.116Z,77.99
2023-03-15T02:34:41.516Z,78.20
2023-03-15T02:37:12.701Z,78.38
2023-03-15T02:39:43.302Z,78.78
2023-03-15T02:42:14.550Z,78.83
2023-03-15T02:44:44.435Z,78.95
2023-03-15T02:47:37.734Z,79.05
2023-03-15T02:50:08.577Z,79.31
2023-03-15T02:52:38.272Z,79.48
2023-03-15T02:55:15.057Z,79.77
2023-03-15T02:57:59.034Z,79.62
2023-03-15T03:04:01.303Z,80.22
2023-03-15T03:06:28.442Z,80.10
2023-03-15T03:09:03.993Z,80.53
2023-03-15T03:11:31.679Z,80.69
2023-03-15T03:14:01.462Z,80.52
2023-03-15T03:16:28.651Z,81.11
2023-03-15T03:18:56.408Z,81.53
2023-03-15T03:21:27.349Z,81.38
2023-03-15T03:23:55.172Z,81.75
2023-03-15T03:26:27.459Z,81.93
2023-03-15T03:28:56.253Z,82.22
2023-03-15T03:31:26.819Z,82.43
2023-03-15T03:34:01.797Z,82.49
2023-03-15T03:36:30.534Z,82.61
2023-03-15T03:38:59.265Z,83.16
2023-03-15T03:49:06.671Z,83.95
2023-03-15T03:51:36.656Z,84.31
2023-03-15T03:54:05.683Z,84.57
2023-03-15T03:56:34.351Z,84.91
2023-03-15T03:59:02.985Z,85.29
2023-03-15T04:01:43.823Z,85.67
2023-03-15T04:04:14.535Z,85.79
2023-03-15T04:06:46.065Z,85.83
2023-03-15T04:09:16.897Z,86.01
2023-03-15T04:11:52.804Z,86.47
2023-03-15T04:14:24.768Z,86.69
2023-03-15T04:16:55.136Z,86.77
2023-03-15T04:19:31.590Z,86.80
2023-03-15T04:22:06.747Z,87.13
2023-03-15T04:25:02.277Z,87.34
2023-03-15T04:28:00.227Z,87.38
2023-03-15T04:30:44.990Z,87.51
2023-03-15T04:33:29.010Z,87.93
2023-03-15T04:36:33.636Z,88.21
2023-03-15T04:39:06.133Z,88.21
2023-03-15T04:41:48.505Z,88.32
2023-03-15T04:44:30.957Z,88.45
2023-03-15T04:47:22.950Z,88.47
2023-03-15T04:50:07.223Z,88.75
2023-03-15T04:52:53.202Z,88.79
2023-03-15T04:55:45.053Z,88.90
2023-03-15T04:58:20.040Z,88.98
2023-03-15T05:01:04.730Z,88.81
2023-03-15T05:04:07.066Z,88.81
2023-03-15T05:06:56.088Z,89.09
2023-03-15T05:09:41.295Z,89.04
2023-03-15T05:12:13.780Z,88.85
2023-03-15T05:15:03.290Z,89.32
2023-03-15T05:17:57.661Z,89.08
2023-03-15T05:20:51.497Z,88.70
2023-03-15T05:23:41.675Z,86.66
2023-03-15T05:26:35.956Z,85.22
2023-03-15T05:29:27.579Z,83.20
2023-03-15T05:32:31.723Z,81.23
2023-03-15T05:35:31.757Z,79.47
2023-03-15T05:38:15.508Z,77.78
2023-03-15T05:41:02.663Z,76.28
2023-03-15T05:43:52.073Z,76.04
2023-03-15T05:46:22.978Z,76.01
2023-03-15T05:49:01.084Z,75.02
2023-03-15T05:51:57.629Z,73.08
2023-03-15T05:54:37.286Z,71.67
2023-03-15T05:57:27.061Z,70.57
2023-03-15T06:00:20.747Z,70.00
2023-03-15T06:02:53.213Z,68.72
2023-03-15T06:05:38.256Z,67.49
2023-03-15T06:08:10.073Z,67.35
2023-03-15T06:10:45.061Z,67.64
2023-03-15T06:13:17.862Z,67.76
2023-03-15T06:15:48.653Z,67.84
2023-03-15T06:18:19.556Z,68.27
2023-03-15T06:20:50.845Z,69.38
2023-03-15T06:23:26.735Z,70.62
2023-03-15T06:25:58.568Z,71.33
2023-03-15T06:28:29.049Z,72.11
2023-03-15T06:31:08.769Z,72.67
2023-03-15T06:33:42.229Z,73.09
2023-03-15T06:36:12.699Z,73.11
2023-03-15T06:38:44.236Z,72.97
2023-03-15T06:41:15.507Z,71.90
2023-03-15T06:43:53.167Z,70.28
2023-03-15T06:46:21.892Z,69.19
2023-03-15T06:48:53.314Z,67.17
2023-03-15T06:51:24.654Z,66.14
2023-03-15T06:53:58.368Z,65.06
2023-03-15T06:56:28.633Z,64.73
2023-03-15T06:58:58.097Z,64.68
2023-03-15T07:01:27.701Z,64.69
2023-03-15T07:11:51.270Z,60.84
2023-03-15T07:14:20.307Z,60.23
2023-03-15T07:16:48.744Z,60.49
2023-03-15T07:19:16.316Z,60.57
2023-03-15T07:21:47.895Z,60.31
2023-03-15T07:24:16.002Z,59.53
2023-03-15T07:26:59.828Z,58.92
2023-03-15T07:29:32.282Z,58.57
2023-03-15T07:32:05.533Z,57.32
2023-03-15T07:34:34.422Z,57.24
2023-03-15T07:37:02.424Z,57.01
2023-03-15T07:39:33.390Z,56.75
2023-03-15T07:42:07.946Z,56.17
2023-03-15T07:44:44.450Z,53.65
2023-03-15T07:47:20.280Z,53.12
2023-03-15T07:49:49.008Z,53.00
2023-03-15T07:52:17.787Z,52.48
2023-03-15T07:54:49.578Z,52.15
2023-03-15T07:57:18.809Z,51.44
2023-03-15T07:59:49.616Z,50.05
2023-03-15T08:02:17.904Z,49.23
2023-03-15T08:04:46.452Z,48.17
2023-03-15T08:07:18.239Z,47.05
2023-03-15T08:09:48.866Z,46.05
2023-03-15T08:12:22.190Z,45.06
2023-03-15T08:14:53.893Z,44.84
2023-03-15T08:17:26.502Z,45.01
2023-03-15T08:20:09.721Z,44.23
2023-03-15T08:22:47.094Z,43.63
2023-03-15T08:25:15.324Z,43.81
2023-03-15T08:27:45.809Z,43.58
2023-03-15T08:30:17.494Z,43.18
2023-03-15T08:32:47.302Z,42.57
2023-03-15T08:35:18.259Z,42.16
2023-03-15T08:37:51.834Z,41.97
2023-03-15T08:40:25.632Z,41.69
2023-03-15T08:42:53.321Z,41.40
2023-03-15T08:45:32.991Z,40.83
2023-03-15T08:48:01.509Z,39.57
2023-03-15T08:50:36.935Z,39.48
2023-03-15T08:53:06.533Z,39.33
2023-03-15T08:55:35.384Z,38.96
2023-03-15T08:58:04.761Z,38.84
2023-03-15T09:00:38.244Z,39.04
2023-03-15T09:03:09.871Z,39.16
2023-03-15T09:05:38.671Z,38.77
2023-03-15T09:08:06.322Z,38.48
2023-03-15T09:10:35.436Z,38.23
2023-03-15T09:13:03.656Z,37.84
2023-03-15T09:15:38.114Z,37.74
2023-03-15T09:18:09.209Z,37.30
2023-03-15T09:20:42.508Z,37.58
2023-03-15T09:23:17.218Z,37.55
2023-03-15T09:25:48.346Z,37.58
2023-03-15T09:28:18.236Z,37.32
2023-03-15T09:30:50.140Z,36.70
2023-03-15T09:33:18.538Z,36.22
2023-03-15T09:35:46.241Z,35.64
2023-03-15T09:38:14.201Z,35.51
2023-03-15T09:40:50.766Z,35.78
2023-03-15T09:43:30.311Z,35.29
2023-03-15T09:45:59.888Z,34.94
2023-03-15T09:48:37.733Z,35.02
2023-03-15T09:51:25.360Z,35.09
2023-03-15T09:54:29.130Z,35.27
2023-03-15T09:57:02.523Z,35.28
2023-03-15T09:59:36.271Z,35.59
2023-03-15T10:02:15.882Z,35.30
2023-03-15T10:04:44.772Z,34.99
2023-03-15T10:07:14.364Z,35.01
2023-03-15T10:09:43.503Z,34.47
2023-03-15T10:12:16.598Z,34.02
2023-03-15T10:14:50.164Z,33.40
2023-03-15T10:17:32.339Z,33.69
2023-03-15T10:20:09.116Z,33.31
2023-03-15T10:22:59.056Z,32.58
2023-03-15T10:25:29.144Z,32.50
2023-03-15T10:28:20.562Z,31.83
2023-03-15T10:30:52.121Z,31.54
2023-03-15T10:33:22.042Z,31.95
2023-03-15T10:35:49.050Z,31.78
2023-03-15T10:38:17.554Z,31.01
2023-03-15T10:40:46.107Z,30.86
2023-03-15T10:43:25.222Z,30.23
2023-03-15T10:45:59.997Z,30.33
2023-03-15T10:48:28.218Z,30.25
2023-03-15T10:51:06.207Z,30.26
2023-03-15T10:53:33.711Z,30.63
2023-03-15T10:56:05.530Z,30.07
2023-03-15T10:58:42.008Z,29.63
2023-03-15T11:01:14.907Z,29.59
2023-03-15T11:03:43.480Z,29.70
2023-03-15T11:06:21.231Z,29.24
2023-03-15T11:09:06.951Z,30.16
2023-03-15T11:11:55.792Z,30.84
2023-03-15T11:14:28.596Z,32.04
2023-03-15T11:16:57.495Z,33.45
2023-03-15T11:19:27.971Z,34.69
2023-03-15T11:21:55.890Z,35.05
2023-03-15T11:24:29.299Z,35.29
2023-03-15T11:26:58.044Z,35.91
2023-03-15T11:29:36.610Z,37.08
2023-03-15T11:32:11.831Z,37.92
2023-03-15T11:34:44.482Z,38.29
2023-03-15T11:37:15.847Z,39.04
2023-03-15T11:39:58.802Z,39.87
2023-03-15T11:42:39.556Z,40.60
2023-03-15T11:45:33.600Z,41.35
2023-03-15T11:48:34.393Z,42.57
2023-03-15T11:51:04.409Z,43.27
2023-03-15T11:53:40.048Z,43.99
2023-03-15T11:56:36.280Z,44.69
2023-03-15T11:59:15.135Z,45.22
2023-03-15T12:01:49.045Z,45.83
2023-03-15T12:04:27.358Z,46.30
2023-03-15T12:07:03.469Z,47.18
2023-03-15T12:09:40.502Z,47.61
2023-03-15T12:12:25.974Z,47.96
2023-03-15T12:15:28.783Z,47.99
2023-03-15T12:17:59.601Z,47.93
2023-03-15T12:20:47.160Z,48.14
2023-03-15T12:23:39.434Z,48.27
2023-03-15T12:26:10.742Z,48.06
2023-03-15T12:28:39.334Z,48.34
2023-03-15T12:31:15.244Z,48.94
2023-03-15T12:33:52.730Z,49.15
2023-03-15T12:36:43.539Z,49.44
2023-03-15T12:39:37.254Z,49.74
2023-03-15T12:42:04.722Z,49.97
2023-03-15T12:44:43.164Z,50.19
2023-03-15T12:47:14.203Z,50.46
2023-03-15T12:49:44.172Z,50.68
2023-03-15T12:52:11.197Z,50.91
2023-03-15T12:54:42.825Z,50.99
2023-03-15T12:57:11.127Z,50.92
2023-03-15T12:59:49.410Z,51.01
2023-03-15T13:02:41.764Z,51.16
2023-03-15T13:05:23.807Z,50.87
2023-03-15T13:08:20.008Z,50.13
2023-03-15T13:10:56.761Z,49.92
2023-03-15T13:13:46.529Z,50.36
2023-03-15T13:16:32.811Z,50.53
2023-03-15T13:19:15.706Z,50.99
2023-03-15T13:22:03.925Z,51.43
2023-03-15T13:24:36.650Z,51.72
2023-03-15T13:27:11.204Z,52.02
2023-03-15T13:29:40.952Z,52.38
2023-03-15T13:32:14.583Z,53.02
2023-03-15T13:34:47.975Z,53.37
2023-03-15T13:37:41.558Z,53.97
2023-03-15T13:40:13.951Z,54.08
2023-03-15T13:42:55.701Z,54.08
2023-03-15T13:45:26.650Z,54.31
2023-03-15T13:48:02.511Z,54.59
2023-03-15T13:50:30.970Z,55.11
2023-03-15T13:53:00.706Z,55.00
2023-03-15T13:55:33.008Z,55.06
2023-03-15T13:58:07.892Z,55.42
2023-03-15T14:00:37.552Z,55.38
2023-03-15T14:03:09.197Z,55.65
2023-03-15T14:05:51.185Z,58.38
2023-03-15T14:08:23.754Z,59.50
2023-03-15T14:10:57.746Z,60.16
2023-03-15T14:13:29.234Z,61.05
2023-03-15T14:15:59.621Z,61.41
2023-03-15T14:18:32.414Z,61.66
2023-03-15T14:21:01.511Z,61.93
2023-03-15T14:23:30.294Z,62.05
2023-03-15T14:26:23.481Z,62.50
2023-03-15T14:29:13.394Z,62.58
2023-03-15T14:31:48.919Z,63.40
2023-03-15T14:34:23.393Z,64.11
2023-03-15T14:36:53.490Z,64.23
2023-03-15T14:39:29.768Z,64.21
2023-03-15T14:41:58.329Z,64.60
2023-03-15T14:44:26.912Z,65.48
2023-03-15T14:46:55.511Z,66.01
2023-03-15T14:49:23.739Z,66.44
2023-03-15T14:52:04.440Z,67.14
2023-03-15T14:54:36.156Z,67.57
2023-03-15T14:57:03.913Z,68.23
2023-03-15T14:59:32.426Z,68.13
2023-03-15T15:02:00.634Z,68.20
2023-03-15T15:04:31.119Z,68.39
2023-03-15T15:07:11.073Z,68.82
2023-03-15T15:09:43.372Z,68.54
2023-03-15T15:12:11.745Z,68.54
2023-03-15T15:14:43.781Z,68.71
2023-03-15T15:17:11.636Z,68.69
2023-03-15T15:19:40.147Z,68.64
2023-03-15T15:22:10.318Z,68.89
2023-03-15T15:24:40.745Z,68.93
2023-03-15T15:27:10.116Z,69.17
2023-03-15T15:29:38.388Z,69.15
2023-03-15T15:32:05.883Z,69.35
2023-03-15T15:34:33.956Z,69.32
2023-03-15T15:37:02.056Z,69.62
2023-03-15T15:39:29.916Z,69.69
2023-03-15T15:42:02.577Z,70.08
2023-03-15T15:44:37.537Z,70.68
2023-03-15T15:47:04.551Z,70.88
2023-03-15T15:49:32.757Z,71.52
2023-03-15T15:52:03.763Z,71.82
2023-03-15T15:54:35.402Z,72.17
2023-03-15T15:57:09.540Z,72.51
2023-03-15T15:59:37.813Z,73.30
2023-03-15T16:02:12.591Z,73.94
2023-03-15T16:04:42.594Z,74.94
2023-03-15T16:07:10.341Z,75.96
2023-03-15T16:09:41.053Z,76.15
2023-03-15T16:12:17.156Z,76.78
2023-03-15T16:14:46.370Z,77.56
2023-03-15T16:17:18.717Z,78.16
2023-03-15T16:19:49.876Z,78.34
2023-03-15T16:22:21.796Z,79.13
2023-03-15T16:25:01.729Z,79.59
2023-03-15T16:27:30.214Z,80.01
2023-03-15T16:29:59.468Z,80.69
2023-03-15T16:32:41.421Z,81.21
2023-03-15T16:41:29.931Z,82.30
2023-03-15T16:44:01.712Z,82.22
2023-03-15T16:46:37.705Z,81.89
2023-03-15T16:49:08.821Z,82.62
2023-03-15T16:51:39.792Z,82.85
2023-03-15T16:54:27.196Z,83.07
2023-03-15T16:57:06.857Z,83.06
2023-03-15T16:59:35.922Z,83.56
2023-03-15T17:02:07.817Z,83.70
2023-03-15T17:04:36.187Z,83.70
2023-03-15T17:07:07.168Z,83.60
2023-03-15T17:09:35.717Z,83.78
2023-03-15T17:12:14.414Z,84.02
2023-03-15T17:14:54.727Z,84.32
2023-03-15T17:17:24.872Z,84.05
2023-03-15T17:19:56.124Z,84.39
2023-03-15T17:22:32.808Z,84.97
2023-03-15T17:25:04.524Z,85.16
2023-03-15T17:28:01.335Z,85.18
2023-03-15T17:30:35.192Z,85.07
2023-03-15T17:33:10.487Z,85.40
2023-03-15T17:35:49.595Z,85.77
2023-03-15T17:38:19.713Z,85.82
2023-03-15T17:40:53.998Z,85.68
2023-03-15T17:43:25.886Z,85.95
2023-03-15T17:45:59.212Z,86.03
2023-03-15T17:48:28.045Z,86.27
2023-03-15T17:51:00.497Z,86.45
2023-03-15T17:53:31.228Z,86.70
2023-03-15T17:56:03.689Z,86.90
2023-03-15T17:58:35.277Z,87.47
2023-03-15T18:01:10.436Z,87.37
2023-03-15T18:03:51.949Z,87.58
2023-03-15T18:06:21.807Z,87.85
2023-03-15T18:09:02.787Z,88.39
2023-03-15T18:11:40.558Z,88.32
2023-03-15T18:14:11.738Z,88.92
2023-03-15T18:16:57.200Z,89.48
2023-03-15T18:19:27.282Z,89.71
2023-03-15T18:21:57.735Z,89.78
2023-03-15T18:24:30.367Z,90.53
2023-03-15T18:27:01.066Z,90.35
2023-03-15T18:29:37.000Z,90.66
2023-03-15T18:32:08.490Z,91.04
2023-03-15T18:34:37.025Z,91.01
2023-03-15T18:37:07.499Z,91.30
2023-03-15T18:39:39.982Z,91.73
2023-03-15T18:42:13.210Z,91.45
2023-03-15T18:44:44.735Z,91.67
2023-03-15T18:47:15.939Z,91.84
2023-03-15T18:49:49.504Z,92.07
2023-03-15T18:52:24.857Z,92.34
2023-03-15T18:54:55.481Z,92.59
2023-03-15T18:57:24.224Z,92.92
2023-03-15T18:59:55.466Z,93.49
2023-03-15T19:02:25.823Z,93.30
2023-03-15T19:04:58.898Z,93.27
2023-03-15T19:07:30.165Z,93.78
2023-03-15T19:10:03.262Z,93.65
2023-03-15T19:12:39.008Z,93.67
2023-03-15T19:15:17.209Z,93.67
2023-03-15T19:17:48.176Z,94.05
2023-03-15T19:20:23.165Z,94.16
2023-03-15T19:23:00.436Z,94.22
2023-03-15T19:25:29.159Z,94.34
2023-03-15T19:28:11.076Z,94.47
2023-03-15T19:30:54.085Z,94.25
2023-03-15T19:33:25.246Z,94.55
2023-03-15T19:35:57.708Z,94.55
2023-03-15T19:38:26.283Z,94.99
2023-03-15T19:40:58.784Z,94.86
2023-03-15T19:43:27.439Z,94.75
2023-03-15T19:45:56.184Z,95.10
2023-03-15T19:48:25.119Z,94.65
2023-03-15T19:50:56.202Z,94.80
2023-03-15T19:53:26.949Z,95.28
2023-03-15T19:55:59.387Z,95.19
2023-03-15T19:58:30.968Z,95.04
2023-03-15T20:01:04.573Z,95.15
2023-03-15T20:03:35.241Z,95.44
2023-03-15T20:06:07.479Z,95.46
2023-03-15T20:08:40.456Z,95.46
2023-03-15T20:11:09.022Z,95.36
2023-03-15T20:13:42.109Z,95.48
2023-03-15T20:16:11.926Z,95.45
2023-03-15T20:18:46.333Z,95.56
2023-03-15T20:21:16.943Z,95.49
2023-03-15T20:23:57.339Z,95.67
2023-03-15T20:26:30.466Z,95.61
2023-03-15T20:29:03.825Z,95.87
2023-03-15T20:31:34.366Z,95.89
2023-03-15T20:34:06.100Z,95.69
2023-03-15T20:36:37.922Z,95.81
2023-03-15T20:39:06.470Z,95.93
2023-03-15T20:41:43.336Z,96.05
2023-03-15T20:44:16.500Z,96.17
2023-03-15T20:46:48.366Z,96.07
2023-03-15T20:49:22.304Z,96.33
2023-03-15T20:51:55.578Z,96.45
2023-03-15T20:54:26.505Z,96.62
2023-03-15T20:56:54.780Z,96.89
2023-03-15T20:59:33.837Z,97.21
2023-03-15T21:02:04.063Z,96.97
2023-03-15T21:04:34.282Z,97.25
2023-03-15T21:07:07.506Z,97.18
2023-03-15T21:09:39.762Z,97.21
2023-03-15T21:12:21.613Z,97.24
2023-03-15T21:14:52.790Z,97.46
2023-03-15T21:17:24.170Z,97.60
2023-03-15T21:19:53.272Z,97.53
2023-03-15T21:22:37.408Z,97.53
2023-03-15T21:25:10.060Z,97.44
2023-03-15T21:27:41.633Z,97.65
2023-03-15T21:30:23.030Z,97.84
2023-03-15T21:32:53.528Z,97.97
2023-03-15T21:35:24.331Z,97.99
2023-03-15T21:37:54.993Z,98.08
2023-03-15T21:40:23.843Z,98.16
2023-03-15T21:42:53.693Z,98.37
2023-03-15T21:45:23.362Z,98.32
2023-03-15T21:47:56.876Z,98.29
2023-03-15T21:52:08.210Z,98.00
2023-03-15T21:54:39.007Z,97.96
2023-03-15T21:57:09.429Z,97.61
2023-03-15T21:59:40.585Z,97.70
2023-03-15T22:02:11.114Z,97.83
2023-03-15T22:04:46.627Z,97.88
2023-03-15T22:07:15.701Z,97.70
2023-03-15T22:09:46.437Z,97.53
2023-03-15T22:12:21.137Z,97.68
2023-03-15T22:20:18.667Z,97.37
2023-03-15T22:22:49.404Z,97.45
2023-03-15T22:25:19.069Z,97.17
2023-03-15T22:27:49.114Z,97.18
2023-03-15T22:30:19.022Z,97.14
2023-03-15T22:32:51.169Z,96.97
2023-03-15T22:35:21.065Z,96.71
2023-03-15T22:37:51.340Z,96.65
2023-03-15T22:40:31.761Z,96.33
2023-03-15T22:43:00.445Z,96.34
2023-03-15T22:45:31.068Z,96.09
2023-03-15T22:48:01.271Z,96.08
2023-03-15T22:50:38.423Z,96.09
2023-03-15T22:53:07.301Z,95.39
2023-03-15T22:55:38.217Z,95.42
2023-03-15T22:58:07.429Z,95.23
2023-03-15T23:00:37.043Z,95.03
2023-03-15T23:03:05.425Z,94.76
2023-03-15T23:05:35.183Z,95.05
2023-03-15T23:08:05.634Z,94.89
2023-03-15T23:10:36.076Z,94.75
2023-03-15T23:13:06.272Z,94.68
2023-03-15T23:15:40.282Z,94.62
2023-03-15T23:18:10.912Z,94.50
2023-03-15T23:20:41.787Z,94.38
2023-03-15T23:23:15.663Z,94.21
2023-03-15T23:25:46.180Z,94.18
2023-03-15T23:28:17.427Z,94.17
2023-03-15T23:30:47.363Z,94.26
2023-03-15T23:33:17.938Z,93.98
2023-03-15T23:35:47.537Z,94.00
2023-03-15T23:38:15.967Z,94.19
2023-03-15T23:40:44.970Z,94.05
2023-03-15T23:43:13.495Z,94.10
2023-03-15T23:45:41.740Z,93.87
2023-03-15T23:48:13.271Z,93.90
2023-03-15T23:50:44.468Z,93.64
2023-03-15T23:53:16.990Z,93.78
2023-03-15T23:55:46.905Z,93.77
2023-03-15T23:58:18.518Z,93.88
